createdAt,value
2022-10-01T00:00:09.025Z,91.70
2022-10-01T00:03:50.914Z,91.70
2022-10-01T00:07:41.506Z,91.70
2022-10-01T00:11:26.626Z,91.60
2022-10-01T00:15:13.323Z,91.60
2022-10-01T00:18:56.183Z,91.60
2022-10-01T00:22:38.076Z,91.50
2022-10-01T00:26:22.708Z,91.60
2022-10-01T00:30:06.517Z,91.50
2022-10-01T00:33:48.977Z,91.50
2022-10-01T00:37:31.144Z,91.50
2022-10-01T00:41:13.030Z,91.50
2022-10-01T00:44:54.954Z,91.50
2022-10-01T00:48:50.662Z,91.60
2022-10-01T00:52:34.373Z,91.70
2022-10-01T00:56:16.252Z,91.60
2022-10-01T01:00:01.567Z,91.60
2022-10-01T01:03:43.544Z,91.70
2022-10-01T01:07:27.308Z,91.80
2022-10-01T01:11:33.281Z,91.90
2022-10-01T01:15:39.868Z,92.00
2022-10-01T01:19:33.039Z,92.10
2022-10-01T01:23:14.845Z,92.00
2022-10-01T01:27:06.374Z,92.00
2022-10-01T01:30:50.201Z,92.20
2022-10-01T01:34:34.993Z,92.00
2022-10-01T01:38:22.886Z,92.00
2022-10-01T01:42:10.138Z,92.00
2022-10-01T01:45:55.286Z,92.00
2022-10-01T01:49:39.496Z,91.80
2022-10-01T01:53:21.747Z,91.70
2022-10-01T01:57:04.627Z,91.70
2022-10-01T02:00:52.392Z,91.70
2022-10-01T02:04:59.508Z,91.60
2022-10-01T02:09:05.768Z,91.60
2022-10-01T02:12:50.383Z,91.80
2022-10-01T02:16:35.377Z,91.70
2022-10-01T02:20:31.147Z,91.70
2022-10-01T02:24:30.998Z,91.80
2022-10-01T02:28:19.045Z,91.70
2022-10-01T02:32:02.341Z,91.70
2022-10-01T02:35:46.769Z,91.60
2022-10-01T02:39:31.549Z,91.60
2022-10-01T02:43:23.616Z,91.50
2022-10-01T02:47:17.175Z,91.50
2022-10-01T02:51:36.642Z,91.50
2022-10-01T02:55:26.181Z,91.60
2022-10-01T02:59:08.910Z,91.50
2022-10-01T03:02:50.785Z,91.70
2022-10-01T03:06:36.134Z,91.60
2022-10-01T03:10:18.202Z,91.70
2022-10-01T03:14:01.164Z,91.60
2022-10-01T03:17:43.292Z,91.80
2022-10-01T03:21:25.162Z,91.80
2022-10-01T03:25:07.300Z,91.80
2022-10-01T03:28:49.250Z,91.70
2022-10-01T03:32:31.215Z,91.50
2022-10-01T03:36:13.119Z,91.50
2022-10-01T03:39:54.930Z,91.50
2022-10-01T03:43:36.886Z,91.60
2022-10-01T03:47:18.727Z,91.60
2022-10-01T03:51:00.988Z,91.50
2022-10-01T03:54:42.841Z,91.60
2022-10-01T03:58:25.447Z,91.50
2022-10-01T04:02:08.181Z,91.50
2022-10-01T04:05:50.490Z,91.50
2022-10-01T04:09:32.596Z,91.60
2022-10-01T04:13:14.514Z,91.60
2022-10-01T04:16:56.377Z,91.60
2022-10-01T04:20:38.578Z,91.60
2022-10-01T04:24:20.472Z,91.50
2022-10-01T04:28:05.626Z,91.50
2022-10-01T04:31:47.658Z,91.50
2022-10-01T04:35:29.892Z,91.40
2022-10-01T04:39:11.708Z,91.40
2022-10-01T04:42:53.646Z,91.30
2022-10-01T04:46:35.865Z,91.20
2022-10-01T04:50:18.987Z,91.10
2022-10-01T04:54:01.026Z,91.10
2022-10-01T04:57:44.145Z,91.10
2022-10-01T05:01:26.173Z,91.10
2022-10-01T05:05:08.529Z,91.10
2022-10-01T05:08:52.204Z,91.10
2022-10-01T05:12:35.281Z,91.10
2022-10-01T05:16:17.686Z,91.20
2022-10-01T05:19:59.721Z,91.30
2022-10-01T05:23:42.176Z,91.30
2022-10-01T05:27:24.030Z,91.40
2022-10-01T05:31:06.105Z,91.40
2022-10-01T05:34:52.742Z,91.40
2022-10-01T05:38:37.398Z,91.50
2022-10-01T05:42:19.318Z,91.50
2022-10-01T05:46:02.207Z,91.60
2022-10-01T05:49:44.866Z,91.60
2022-10-01T05:53:27.200Z,91.60
2022-10-01T05:57:09.505Z,91.60
2022-10-01T06:00:51.361Z,91.50
2022-10-01T06:04:36.656Z,91.50
2022-10-01T06:08:21.963Z,91.40
2022-10-01T06:12:10.494Z,91.40
2022-10-01T06:15:53.087Z,91.50
2022-10-01T06:19:34.972Z,91.50
2022-10-01T06:23:17.212Z,91.50
2022-10-01T06:26:59.261Z,91.40
2022-10-01T06:30:41.418Z,91.40
2022-10-01T06:34:23.410Z,91.40
2022-10-01T06:38:06.286Z,91.50
2022-10-01T06:41:48.850Z,91.50
2022-10-01T06:45:31.448Z,91.40
2022-10-01T06:49:13.945Z,91.40
2022-10-01T06:52:57.080Z,91.30
2022-10-01T06:56:38.975Z,91.30
2022-10-01T07:00:20.835Z,91.30
2022-10-01T07:04:03.749Z,91.50
2022-10-01T07:07:45.881Z,91.90
2022-10-01T07:11:28.077Z,91.70
2022-10-01T07:15:10.085Z,91.50
2022-10-01T07:18:52.531Z,91.30
2022-10-01T07:22:34.446Z,91.30
2022-10-01T07:26:16.510Z,91.40
2022-10-01T07:29:59.286Z,91.30
2022-10-01T07:33:41.751Z,91.40
2022-10-01T07:37:23.820Z,91.50
2022-10-01T07:41:06.266Z,91.50
2022-10-01T07:44:49.872Z,91.40
2022-10-01T07:48:31.831Z,91.40
2022-10-01T07:52:13.758Z,91.40
2022-10-01T07:55:56.247Z,91.20
2022-10-01T07:59:39.412Z,91.20
2022-10-01T08:03:21.344Z,91.00
2022-10-01T08:07:03.244Z,90.90
2022-10-01T08:10:45.173Z,90.60
2022-10-01T08:14:28.818Z,90.40
2022-10-01T08:18:11.642Z,90.20
2022-10-01T08:21:53.712Z,89.80
2022-10-01T08:25:35.796Z,89.80
2022-10-01T08:29:17.938Z,89.90
2022-10-01T08:33:04.095Z,90.10
2022-10-01T08:36:45.923Z,90.40
2022-10-01T08:40:28.242Z,89.90
2022-10-01T08:44:18.252Z,90.30
2022-10-01T08:48:05.664Z,89.90
2022-10-01T08:52:03.862Z,89.60
2022-10-01T08:55:47.715Z,89.30
2022-10-01T08:59:40.577Z,89.50
2022-10-01T09:03:22.498Z,87.80
2022-10-01T09:07:37.945Z,87.80
2022-10-01T09:11:43.727Z,87.00
2022-10-01T09:15:33.851Z,87.80
2022-10-01T09:19:42.809Z,87.20
2022-10-01T09:23:32.134Z,86.70
2022-10-01T09:27:19.774Z,87.80
2022-10-01T09:31:20.254Z,86.90
2022-10-01T09:35:12.982Z,85.80
2022-10-01T09:39:21.962Z,87.20
2022-10-01T09:43:06.404Z,86.30
2022-10-01T09:46:48.441Z,86.90
2022-10-01T09:50:41.409Z,86.70
2022-10-01T09:54:53.922Z,85.80
2022-10-01T09:58:40.449Z,85.50
2022-10-01T10:02:34.183Z,86.50
2022-10-01T10:06:16.261Z,84.70
2022-10-01T10:10:25.363Z,85.50
2022-10-01T10:14:20.989Z,84.80
2022-10-01T10:18:13.182Z,84.50
2022-10-01T10:22:01.115Z,84.60
2022-10-01T10:25:43.511Z,84.20
2022-10-01T10:29:37.551Z,84.10
2022-10-01T10:33:21.960Z,82.90
2022-10-01T10:37:07.080Z,83.60
2022-10-01T10:40:59.773Z,82.40
2022-10-01T10:44:49.373Z,82.90
2022-10-01T10:48:36.602Z,82.50
2022-10-01T10:52:24.569Z,81.20
2022-10-01T10:56:15.140Z,78.70
2022-10-01T11:00:01.240Z,77.20
2022-10-01T11:03:53.571Z,74.70
2022-10-01T11:07:36.294Z,72.50
2022-10-01T11:11:55.094Z,71.50
2022-10-01T11:16:04.655Z,67.50
2022-10-01T11:20:10.840Z,68.40
2022-10-01T11:24:10.670Z,69.00
2022-10-01T11:28:14.368Z,71.10
2022-10-01T11:32:05.782Z,68.90
2022-10-01T11:36:03.069Z,66.10
2022-10-01T11:39:47.890Z,63.80
2022-10-01T11:44:08.690Z,63.60
2022-10-01T11:47:59.001Z,60.30
2022-10-01T11:51:53.158Z,60.60
2022-10-01T11:56:14.377Z,61.00
2022-10-01T12:00:10.928Z,63.80
2022-10-01T12:03:52.768Z,60.10
2022-10-01T12:08:09.370Z,59.00
2022-10-01T12:12:03.796Z,53.30
2022-10-01T12:16:10.460Z,54.70
2022-10-01T12:19:56.030Z,52.30
2022-10-01T12:23:51.069Z,54.00
2022-10-01T12:27:44.360Z,51.10
2022-10-01T12:31:42.417Z,51.20
2022-10-01T12:35:47.647Z,49.70
2022-10-01T12:40:03.572Z,50.90
2022-10-01T12:43:58.470Z,51.60
2022-10-01T12:47:56.921Z,54.60
2022-10-01T12:51:45.677Z,49.10
2022-10-01T12:55:56.060Z,47.90
2022-10-01T12:59:44.824Z,46.40
2022-10-01T13:03:29.741Z,44.40
2022-10-01T13:07:46.808Z,46.50
2022-10-01T13:11:47.441Z,44.30
2022-10-01T13:15:35.180Z,44.60
2022-10-01T13:19:54.849Z,43.50
2022-10-01T13:24:04.644Z,44.30
2022-10-01T13:27:56.967Z,45.10
2022-10-01T13:31:59.783Z,45.30
2022-10-01T13:35:42.188Z,45.30
2022-10-01T13:39:24.788Z,47.60
2022-10-01T13:43:19.122Z,48.30
2022-10-01T13:47:07.435Z,47.80
2022-10-01T13:51:13.048Z,49.00
2022-10-01T13:54:56.569Z,49.90
2022-10-01T13:58:40.134Z,50.90
2022-10-01T14:02:40.031Z,51.10
2022-10-01T14:06:32.745Z,50.90
2022-10-01T14:10:19.960Z,50.10
2022-10-01T14:14:47.229Z,50.40
2022-10-01T14:18:38.086Z,48.90
2022-10-01T14:22:35.546Z,49.30
2022-10-01T14:26:48.267Z,49.90
2022-10-01T14:30:44.138Z,50.70
2022-10-01T14:34:55.322Z,52.00
2022-10-01T14:38:37.446Z,51.90
2022-10-01T14:42:19.559Z,53.00
2022-10-01T14:46:06.573Z,53.40
2022-10-01T14:49:50.118Z,53.50
2022-10-01T14:53:38.129Z,53.10
2022-10-01T14:57:29.328Z,53.00
2022-10-01T15:01:20.273Z,53.10
2022-10-01T15:05:02.367Z,53.40
2022-10-01T15:08:47.970Z,54.10
2022-10-01T15:12:30.026Z,54.50
2022-10-01T15:16:27.560Z,55.00
2022-10-01T15:20:12.385Z,54.70
2022-10-01T15:23:54.602Z,55.30
2022-10-01T15:27:36.568Z,55.80
2022-10-01T15:31:21.682Z,56.10
2022-10-01T15:35:03.900Z,56.40
2022-10-01T15:38:47.712Z,56.70
2022-10-01T15:42:37.172Z,57.00
2022-10-01T15:46:29.203Z,57.20
2022-10-01T15:50:11.192Z,57.60
2022-10-01T15:53:54.176Z,58.10
2022-10-01T15:57:38.846Z,58.50
2022-10-01T16:01:27.824Z,58.90
2022-10-01T16:05:18.291Z,59.30
2022-10-01T16:09:50.639Z,59.70
2022-10-01T16:13:38.544Z,59.70
2022-10-01T16:17:21.675Z,60.00
2022-10-01T16:21:06.173Z,60.20
2022-10-01T16:24:54.440Z,60.40
2022-10-01T16:28:36.679Z,60.70
2022-10-01T16:32:18.763Z,60.90
2022-10-01T16:36:11.043Z,61.20
2022-10-01T16:39:53.114Z,61.40
2022-10-01T16:43:34.918Z,61.40
2022-10-01T16:47:17.946Z,61.50
2022-10-01T16:50:59.900Z,61.70
2022-10-01T16:54:41.854Z,61.80
2022-10-01T16:58:24.279Z,62.00
2022-10-01T17:02:14.092Z,62.30
2022-10-01T17:05:55.940Z,62.50
2022-10-01T17:09:37.845Z,62.70
2022-10-01T17:13:19.836Z,62.80
2022-10-01T17:17:01.735Z,63.00
2022-10-01T17:20:43.683Z,63.20
2022-10-01T17:24:26.661Z,63.30
2022-10-01T17:28:12.225Z,63.50
2022-10-01T17:31:54.397Z,63.80
2022-10-01T17:35:44.635Z,64.00
2022-10-01T17:39:33.988Z,64.40
2022-10-01T17:43:17.316Z,64.70
2022-10-01T17:46:59.186Z,64.90
2022-10-01T17:50:45.134Z,65.20
2022-10-01T17:54:27.125Z,65.50
2022-10-01T17:58:10.019Z,65.70
2022-10-01T18:01:53.347Z,65.90
2022-10-01T18:05:35.560Z,66.40
2022-10-01T18:09:17.710Z,66.50
2022-10-01T18:13:00.087Z,66.60
2022-10-01T18:16:42.150Z,66.90
2022-10-01T18:20:24.409Z,67.10
2022-10-01T18:24:07.114Z,67.30
2022-10-01T18:27:52.681Z,67.40
2022-10-01T18:31:40.804Z,67.60
2022-10-01T18:35:34.455Z,67.80
2022-10-01T18:39:53.925Z,68.20
2022-10-01T18:43:38.676Z,68.30
2022-10-01T18:47:23.357Z,68.10
2022-10-01T18:51:33.821Z,68.20
2022-10-01T18:55:34.978Z,68.90
2022-10-01T18:59:35.835Z,68.90
2022-10-01T19:03:36.123Z,69.20
2022-10-01T19:07:38.246Z,68.90
2022-10-01T19:12:02.070Z,69.70
2022-10-01T19:16:00.534Z,69.90
2022-10-01T19:20:13.746Z,69.90
2022-10-01T19:24:09.765Z,70.30
2022-10-01T19:28:19.250Z,70.20
2022-10-01T19:32:23.065Z,71.00
2022-10-01T19:36:07.228Z,70.20
2022-10-01T19:39:51.710Z,70.30
2022-10-01T19:43:39.832Z,70.60
2022-10-01T19:47:47.061Z,70.90
2022-10-01T19:51:33.732Z,72.10
2022-10-01T19:55:17.351Z,71.30
2022-10-01T19:59:20.359Z,71.20
2022-10-01T20:03:56.925Z,72.50
2022-10-01T20:08:08.073Z,72.70
2022-10-01T20:12:16.492Z,72.70
2022-10-01T20:16:35.372Z,73.10
2022-10-01T20:20:22.370Z,73.20
2022-10-01T20:24:48.068Z,72.60
2022-10-01T20:28:52.099Z,74.40
2022-10-01T20:32:59.176Z,73.80
2022-10-01T20:36:55.825Z,73.90
2022-10-01T20:40:58.160Z,73.50
2022-10-01T20:44:40.508Z,73.70
2022-10-01T20:48:32.371Z,73.90
2022-10-01T20:52:58.992Z,74.30
2022-10-01T20:56:54.902Z,76.10
2022-10-01T21:00:38.508Z,75.60
2022-10-01T21:04:26.332Z,74.60
2022-10-01T21:08:32.856Z,74.90
2022-10-01T21:12:39.696Z,76.40
2022-10-01T21:16:37.893Z,76.20
2022-10-01T21:20:28.347Z,75.10
2022-10-01T21:24:46.183Z,75.80
2022-10-01T21:28:54.370Z,76.30
2022-10-01T21:33:06.655Z,76.50
2022-10-01T21:37:12.278Z,76.70
2022-10-01T21:41:06.212Z,76.90
2022-10-01T21:44:57.406Z,75.70
2022-10-01T21:49:05.681Z,76.90
2022-10-01T21:53:18.721Z,76.60
2022-10-01T21:57:28.024Z,77.40
2022-10-01T22:01:22.431Z,77.30
2022-10-01T22:05:11.708Z,76.20
2022-10-01T22:09:18.028Z,77.40
2022-10-01T22:13:04.433Z,77.60
2022-10-01T22:16:50.458Z,76.90
2022-10-01T22:20:35.460Z,77.30
2022-10-01T22:24:25.160Z,77.00
2022-10-01T22:28:25.610Z,77.50
2022-10-01T22:32:11.123Z,78.10
2022-10-01T22:36:14.047Z,77.60
2022-10-01T22:40:05.359Z,79.10
2022-10-01T22:43:48.031Z,78.00
2022-10-01T22:47:49.695Z,77.90
2022-10-01T22:51:43.596Z,79.70
2022-10-01T22:55:48.433Z,79.10
2022-10-01T23:00:07.810Z,79.60
2022-10-01T23:04:02.183Z,79.50
2022-10-01T23:08:15.147Z,78.70
2022-10-01T23:12:03.747Z,79.30
2022-10-01T23:15:49.226Z,78.60
2022-10-01T23:20:10.077Z,78.50
2022-10-01T23:24:14.046Z,79.30
2022-10-01T23:27:59.730Z,79.40
2022-10-01T23:32:16.483Z,78.90
2022-10-01T23:36:22.955Z,79.80
2022-10-01T23:40:10.021Z,79.60
2022-10-01T23:44:00.036Z,79.20
2022-10-01T23:48:04.159Z,79.20
2022-10-01T23:52:24.720Z,80.30
2022-10-01T23:56:38.090Z,79.50
